地図

経路データ

SID SEASON NUMBER BASIN SUBBASIN NAME ISO_TIME NATURE LAT LON WMO_WIND WMO_PRES WMO_AGENCY TRACK_TYPE DIST2LAND LANDFALL IFLAG USA_AGENCY USA_ATCF_ID USA_LAT USA_LON USA_RECORD USA_STATUS USA_WIND USA_PRES USA_SSHS USA_R34_NE USA_R34_SE USA_R34_SW USA_R34_NW USA_R50_NE USA_R50_SE USA_R50_SW USA_R50_NW USA_R64_NE USA_R64_SE USA_R64_SW USA_R64_NW USA_POCI USA_ROCI USA_RMW USA_EYE TOKYO_LAT TOKYO_LON TOKYO_GRADE TOKYO_WIND TOKYO_PRES TOKYO_R50_DIR TOKYO_R50_LONG TOKYO_R50_SHORT TOKYO_R30_DIR TOKYO_R30_LONG TOKYO_R30_SHORT TOKYO_LAND CMA_LAT CMA_LON CMA_CAT CMA_WIND CMA_PRES HKO_LAT HKO_LON HKO_CAT HKO_WIND HKO_PRES NEWDELHI_LAT NEWDELHI_LON NEWDELHI_GRADE NEWDELHI_WIND NEWDELHI_PRES NEWDELHI_CI NEWDELHI_DP NEWDELHI_POCI REUNION_LAT REUNION_LON REUNION_TYPE REUNION_WIND REUNION_PRES REUNION_TNUM REUNION_CI REUNION_RMW REUNION_R34_NE REUNION_R34_SE REUNION_R34_SW REUNION_R34_NW REUNION_R50_NE REUNION_R50_SE REUNION_R50_SW REUNION_R50_NW REUNION_R64_NE REUNION_R64_SE REUNION_R64_SW REUNION_R64_NW BOM_LAT BOM_LON BOM_TYPE BOM_WIND BOM_PRES BOM_TNUM BOM_CI BOM_RMW BOM_R34_NE BOM_R34_SE BOM_R34_SW BOM_R34_NW BOM_R50_NE BOM_R50_SE BOM_R50_SW BOM_R50_NW BOM_R64_NE BOM_R64_SE BOM_R64_SW BOM_R64_NW BOM_ROCI BOM_POCI BOM_EYE BOM_POS_METHOD BOM_PRES_METHOD NADI_LAT NADI_LON NADI_CAT NADI_WIND NADI_PRES WELLINGTON_LAT WELLINGTON_LON WELLINGTON_WIND WELLINGTON_PRES DS824_LAT DS824_LON DS824_STAGE DS824_WIND DS824_PRES TD9636_LAT TD9636_LON TD9636_STAGE TD9636_WIND TD9636_PRES TD9635_LAT TD9635_LON TD9635_WIND TD9635_PRES TD9635_ROCI NEUMANN_LAT NEUMANN_LON NEUMANN_CLASS NEUMANN_WIND NEUMANN_PRES MLC_LAT MLC_LON MLC_CLASS MLC_WIND MLC_PRES USA_GUST BOM_GUST BOM_GUST_PER REUNION_GUST REUNION_GUST_PER USA_SEAHGT USA_SEARAD_NE USA_SEARAD_SE USA_SEARAD_SW USA_SEARAD_NW STORM_SPEED STORM_DIR
1902231N18086 1902 29 NI BB NOT_NAMED 1902-08-19 00:00:00 TS 17.5000 85.8000 main 192 138 _________O____ -1 17.5000 85.8000 TC 30 10 308
1902231N18086 1902 29 NI BB NOT_NAMED 1902-08-19 03:00:00 TS 17.8003 85.3988 main 138 69 _________PO___ -1 17.9504 85.1981 TC 30 17.5000 85.8000 1 12 309
1902231N18086 1902 29 NI BB NOT_NAMED 1902-08-19 06:00:00 TS 18.2171 84.8553 main 69 0 _________OP___ -1 18.4000 84.6000 TC 30 17.9427 85.2383 1 14 309
1902231N18086 1902 29 NI BB NOT_NAMED 1902-08-19 09:00:00 TS 18.6518 84.2871 main 0 0 _________PP___ -1 18.8497 84.0071 TC 30 18.3878 84.6603 1 14 309
1902231N18086 1902 29 NI BB NOT_NAMED 1902-08-19 12:00:00 TS 19.0695 83.7262 main 0 0 _________OP___ -1 19.3000 83.4000 TC 30 18.8390 84.0523 1 14 308
1902231N18086 1902 29 NI BB NOT_NAMED 1902-08-19 15:00:00 TS 19.5286 83.0824 main 0 0 _________PO___ -1 19.7573 82.7647 TC 30 19.3000 83.4000 1 16 306
1902231N18086 1902 29 NI BB NOT_NAMED 1902-08-19 18:00:00 TS 19.9847 82.3994 main 0 0 _________OP___ -1 20.2000 82.1000 TC 30 19.7694 82.6989 1 16 304
1902231N18086 1902 29 NI BB NOT_NAMED 1902-08-19 21:00:00 TS 20.4320 81.6698 main 0 0 _________PP___ -1 20.6378 81.3553 TC 30 20.2261 81.9842 1 16 303
1902231N18086 1902 29 NI BB NOT_NAMED 1902-08-20 00:00:00 TS 20.8223 81.0011 main 0 0 _________OP___ -1 21.0000 80.7000 TC 30 20.6446 81.3022 1 13 302
1902231N18086 1902 29 NI BB NOT_NAMED 1902-08-20 03:00:00 TS 21.1147 80.5022 main 0 0 _________PO___ -1 21.2294 80.3043 TC 30 21.0000 80.7000 1 10 302
1902231N18086 1902 29 NI BB NOT_NAMED 1902-08-20 06:00:00 TS 21.3357 80.1144 main 0 0 _________OP___ -1 21.4000 80.0000 TC 30 21.2713 80.2288 1 8 300
1902231N18086 1902 29 NI BB NOT_NAMED 1902-08-20 09:00:00 TS 21.5441 79.7177 main 0 0 _________PP___ -1 21.6076 79.5925 TC 30 21.4807 79.8428 1 8 299
1902231N18086 1902 29 NI BB NOT_NAMED 1902-08-20 12:00:00 TS 21.7249 79.3553 main 0 0 _________OP___ -1 21.8000 79.2000 TC 30 21.6498 79.5106 1 7 298
1902231N18086 1902 29 NI BB NOT_NAMED 1902-08-20 15:00:00 TS 21.8787 79.0462 main 0 0 _________PO___ -1 21.9573 78.8923 TC 30 21.8000 79.2000 1 6 299
1902231N18086 1902 29 NI BB NOT_NAMED 1902-08-20 18:00:00 TS 22.0337 78.7503 main 0 0 _________OP___ -1 22.1000 78.6000 TC 30 21.9674 78.9006 1 6 299
1902231N18086 1902 29 NI BB NOT_NAMED 1902-08-20 21:00:00 TS 22.1853 78.4482 main 0 0 _________PP___ -1 22.2497 78.2873 TC 30 22.1209 78.6090 1 7 296
1902231N18086 1902 29 NI BB NOT_NAMED 1902-08-21 00:00:00 TS 22.3320 78.0940 main 0 0 _________OP___ -1 22.4000 77.9000 TC 30 22.2641 78.2881 1 8 292
1902231N18086 1902 29 NI AS NOT_NAMED 1902-08-21 03:00:00 TS 22.4788 77.6438 main 0 0 _________PO___ -1 22.5575 77.3875 TC 30 22.4000 77.9000 1 10 287
1902231N18086 1902 29 NI AS NOT_NAMED 1902-08-21 06:00:00 TS 22.6185 77.0904 main 0 0 _________OP___ -1 22.7000 76.8000 TC 30 22.5371 77.3807 1 11 284
1902231N18086 1902 29 NI AS NOT_NAMED 1902-08-21 09:00:00 TS 22.7368 76.4938 main 0 0 _________PP___ -1 22.8075 76.1924 TC 30 22.6662 76.7952 1 11 282
1902231N18086 1902 29 NI AS NOT_NAMED 1902-08-21 12:00:00 TS 22.8435 75.8935 main 0 0 _________OP___ -1 22.9000 75.6000 TC 30 22.7870 76.1869 1 11 281
1902231N18086 1902 29 NI AS NOT_NAMED 1902-08-21 15:00:00 TS 22.9499 75.3387 main 0 0 _________PO___ -1 22.9998 75.0774 TC 30 22.9000 75.6000 1 10 282
1902231N18086 1902 29 NI AS NOT_NAMED 1902-08-21 18:00:00 TS 23.0449 74.8537 main 0 0 _________OP___ -1 23.1000 74.6000 TC 30 22.9898 75.1075 1 9 282
1902231N18086 1902 29 NI AS NOT_NAMED 1902-08-21 21:00:00 TS 23.1341 74.3992 main 0 0 _________PP___ -1 23.1922 74.1573 TC 30 23.0759 74.6411 1 9 283
1902231N18086 1902 29 NI AS NOT_NAMED 1902-08-22 00:00:00 TS 23.2371 73.9396 main 0 0 _________OP___ -1 23.3000 73.7000 TC 30 23.1742 74.1792 1 9 284
1902231N18086 1902 29 NI AS NOT_NAMED 1902-08-22 03:00:00 TS 23.3637 73.4324 main 0 0 _________PO___ -1 23.4275 73.1648 TC 30 23.3000 73.7000 1 10 287
1902231N18086 1902 29 NI AS NOT_NAMED 1902-08-22 06:00:00 TS 23.5317 72.8757 main 0 0 _________OP___ -1 23.6000 72.6000 TC 30 23.4634 73.1515 1 11 290
1902231N18086 1902 29 NI AS NOT_NAMED 1902-08-22 09:00:00 TS 23.7452 72.3102 main 0 0 _________PP___ -1 23.8350 72.0351 TC 30 23.6554 72.5852 1 11 294
1902231N18086 1902 29 NI AS NOT_NAMED 1902-08-22 12:00:00 TS 23.9848 71.7632 main 0 0 _________OP___ -1 24.1000 71.5000 TC 30 23.8697 72.0263 1 11 297
1902231N18086 1902 29 NI AS NOT_NAMED 1902-08-22 15:00:00 TS 24.2249 71.2636 main 0 0 _________PO___ -1 24.3498 71.0273 TC 30 24.1000 71.5000 1 10 299
1902231N18086 1902 29 NI AS NOT_NAMED 1902-08-22 18:00:00 TS 24.4521 70.8429 main 0 0 _________OP___ -1 24.6000 70.6000 TC 30 24.3412 71.0251 1 9 302
1902231N18086 1902 29 NI AS NOT_NAMED 1902-08-22 21:00:00 TS 24.6941 70.4341 main 0 0 _________PP___ -1 24.8502 70.1953 TC 30 24.5901 70.5934 1 9 304
1902231N18086 1902 29 NI AS NOT_NAMED 1902-08-23 00:00:00 TS 24.9293 70.0600 main 0 0 _________OP___ -1 25.1000 69.8000 TC 30 24.8440 70.1900 1 7 305
1902231N18086 1902 29 NI AS NOT_NAMED 1902-08-23 03:00:00 NR 25.1000 69.8000 main 0 __________O___ -1 TC 25.1000 69.8000 1 6 306

IBTrACS Databaseについて

本データベースは、米国NOAAが公開する1842年以降の世界の熱帯低気圧のベストトラックデータアーカイブInternational Best Track Archive for Climate Stewardship (IBTrACS)を、ウェブで閲覧しやすい形式に変換したものです。

最終更新日:2021-11-26